Terminal Aerodrome Forecast
Issued by NWS Greer, SC

Home | Current Version | Previous Version | Text Only | Print | Product List | Glossary On
Versions: 1 2 3 4 5 6 7 8 9 10 11 12 13 14 15 16 17 18 19 20 21 22 23 24 25 26 27 28 29 30 31 32 33 34 35 36 37 38 39 40 41 42 43 44 45 46 47 48
000
FTUS42 KGSP 200524
TAFCLT
TAF
KCLT 200524Z 2006/2106 00000KT P6SM FEW130 SCT250
     FM200800 00000KT 6SM BR SCT120
      TEMPO 2010/2012 5SM BR
     FM201200 25004KT P6SM SCT100
     FM201600 26006KT P6SM SCT050 PROB30 2021/2024 4SM -TSRA
      BKN045CB
     FM210000 29003KT P6SM SCT045=

USA.gov is the U.S. government's official web portal to all federal, state and local government web resources and services.